Time;durP1;ratioP1;P1;durP2;ratioP2;P2;SDS_P1;SDS_P2;PMS_P1;PMS_P2;Temp;Humidity;BMP_temperature;BMP_pressure;BME280_temperature;BME280_humidity;BME280_pressure;Samples;Min_cycle;Max_cycle;Signal;HPM_P1;HPM_P2
2021/04/24 00:01:37;;;;;;;45.17;18.35;;;;;;;;;;8296017;28;20080;-73
2021/04/24 00:05:44;;;;;;;43.65;17.15;;;;;;;;;;8295092;28;20475;-73
2021/04/24 00:09:49;;;;;;;40.78;16.90;;;;;;;;;;8295232;28;20434;-74
2021/04/24 00:13:54;;;;;;;43.60;17.30;;;;;;;;;;8297406;28;20044;-73
2021/04/24 00:17:59;;;;;;;38.45;16.77;;;;;;;;;;8293952;28;20486;-75
2021/04/24 00:22:03;;;;;;;41.95;17.20;;;;;;;;;;8298017;28;20070;-74
2021/04/24 00:26:08;;;;;;;37.10;15.82;;;;;;;;;;8294802;28;20468;-73
2021/04/24 00:30:15;;;;;;;39.92;17.75;;;;;;;;;;8296584;28;20414;-73
2021/04/24 00:34:19;;;;;;;41.85;18.40;;;;;;;;;;8294596;28;20481;-73
2021/04/24 00:38:24;;;;;;;43.03;16.67;;;;;;;;;;8296594;28;20413;-74
2021/04/24 00:42:38;;;;;;;54.22;19.77;;;;;;;;;;8296408;28;20443;-73
2021/04/24 00:46:43;;;;;;;50.13;19.25;;;;;;;;;;8292527;28;20509;-73
2021/04/24 00:50:47;;;;;;;52.45;19.88;;;;;;;;;;8292514;28;20475;-73
2021/04/24 00:54:52;;;;;;;66.35;22.27;;;;;;;;;;8294094;28;20060;-73
2021/04/24 00:58:56;;;;;;;58.42;22.80;;;;;;;;;;8294025;28;20071;-73
2021/04/24 01:03:00;;;;;;;59.65;23.13;;;;;;;;;;8311511;28;20352;-73
2021/04/24 01:07:06;;;;;;;59.78;23.45;;;;;;;;;;8329114;28;20074;-73
2021/04/24 01:11:09;;;;;;;59.63;23.20;;;;;;;;;;8327129;28;20387;-73
2021/04/24 01:15:15;;;;;;;56.78;21.33;;;;;;;;;;8325229;28;20390;-73
2021/04/24 01:19:22;;;;;;;59.38;23.73;;;;;;;;;;8326141;28;20483;-73
2021/04/24 01:23:26;;;;;;;56.65;23.23;;;;;;;;;;8326606;28;20379;-73
2021/04/24 01:27:30;;;;;;;45.78;19.40;;;;;;;;;;8324957;28;20055;-73
2021/04/24 01:31:37;;;;;;;56.10;21.10;;;;;;;;;;8324779;28;20470;-73
2021/04/24 01:35:44;;;;;;;46.00;18.35;;;;;;;;;;8326995;28;20354;-73
2021/04/24 01:39:48;;;;;;;43.90;19.10;;;;;;;;;;8326453;28;20056;-74
2021/04/24 01:43:56;;;;;;;47.00;19.25;;;;;;;;;;8325346;28;20467;-73
2021/04/24 01:48:02;;;;;;;63.28;25.48;;;;;;;;;;8312383;28;20498;-73
2021/04/24 01:52:06;;;;;;;52.40;19.67;;;;;;;;;;8293324;28;20364;-73
2021/04/24 01:56:11;;;;;;;40.72;18.48;;;;;;;;;;8291223;28;20387;-73
2021/04/24 02:00:23;;;;;;;40.35;17.67;;;;;;;;;;8293377;28;20374;-73
2021/04/24 02:04:28;;;;;;;48.65;19.58;;;;;;;;;;8292373;28;20075;-73
2021/04/24 02:08:44;;;;;;;50.47;19.42;;;;;;;;;;8291847;28;20374;-73
2021/04/24 02:12:48;;;;;;;51.58;19.65;;;;;;;;;;8290931;28;20471;-73
2021/04/24 02:16:53;;;;;;;39.30;16.58;;;;;;;;;;8292653;28;20347;-73
2021/04/24 02:20:57;;;;;;;45.50;18.88;;;;;;;;;;8292656;28;20468;-73
2021/04/24 02:25:05;;;;;;;46.97;20.00;;;;;;;;;;8291652;28;20375;-73
2021/04/24 02:29:10;;;;;;;40.17;19.25;;;;;;;;;;8293006;28;20356;-73
2021/04/24 02:33:14;;;;;;;46.45;19.27;;;;;;;;;;8288609;28;20414;-73
2021/04/24 02:37:20;;;;;;;42.83;20.08;;;;;;;;;;8290741;28;20056;-73
2021/04/24 02:41:24;;;;;;;48.33;20.45;;;;;;;;;;8288073;28;20471;-73
2021/04/24 02:45:29;;;;;;;46.92;17.65;;;;;;;;;;8290326;28;20053;-73
2021/04/24 02:49:34;;;;;;;35.67;17.23;;;;;;;;;;8290023;28;20071;-73
2021/04/24 02:53:38;;;;;;;42.33;18.83;;;;;;;;;;8272352;28;20356;-74
2021/04/24 02:57:44;;;;;;;40.80;17.45;;;;;;;;;;8290559;28;20459;-73
2021/04/24 03:01:50;;;;;;;45.05;18.63;;;;;;;;;;8290420;28;20379;-73
2021/04/24 03:05:57;;;;;;;45.20;18.30;;;;;;;;;;8289901;28;20056;-73
2021/04/24 03:10:02;;;;;;;44.78;17.73;;;;;;;;;;8291777;28;20360;-73
2021/04/24 03:14:08;;;;;;;36.83;17.60;;;;;;;;;;8289883;28;20472;-73
2021/04/24 03:18:13;;;;;;;39.85;17.23;;;;;;;;;;8273041;28;20052;-73
2021/04/24 03:22:17;;;;;;;46.90;18.63;;;;;;;;;;8289891;28;20394;-73
2021/04/24 03:26:23;;;;;;;42.50;17.38;;;;;;;;;;8290269;28;20516;-73
2021/04/24 03:30:28;;;;;;;38.72;16.15;;;;;;;;;;8273577;28;20363;-73
2021/04/24 03:34:34;;;;;;;40.80;17.85;;;;;;;;;;8289402;28;20368;-73
2021/04/24 03:38:39;;;;;;;38.90;16.83;;;;;;;;;;8288296;28;20497;-73
2021/04/24 03:42:43;;;;;;;43.40;16.00;;;;;;;;;;8289207;28;20086;-73
2021/04/24 03:46:47;;;;;;;44.80;18.45;;;;;;;;;;8290694;28;20371;-73
2021/04/24 03:50:52;;;;;;;42.90;16.90;;;;;;;;;;8288330;28;20074;-73
2021/04/24 03:54:56;;;;;;;39.28;15.57;;;;;;;;;;8288791;28;20448;-72
2021/04/24 03:59:01;;;;;;;39.47;15.82;;;;;;;;;;8289536;28;20137;-73
2021/04/24 04:03:08;;;;;;;28.35;13.65;;;;;;;;;;8288051;28;20460;-73
2021/04/24 04:07:12;;;;;;;33.55;14.40;;;;;;;;;;8289293;28;20056;-73
2021/04/24 04:11:16;;;;;;;34.40;15.30;;;;;;;;;;8287641;28;20379;-72
2021/04/24 04:15:24;;;;;;;28.83;13.60;;;;;;;;;;8290031;28;20421;-73
2021/04/24 04:19:28;;;;;;;28.80;13.52;;;;;;;;;;8288208;28;20393;-73
2021/04/24 04:23:33;;;;;;;29.73;12.60;;;;;;;;;;8291149;28;20393;-73
2021/04/24 04:27:38;;;;;;;33.53;13.50;;;;;;;;;;8295169;28;20079;-73
2021/04/24 04:31:42;;;;;;;29.27;13.48;;;;;;;;;;8295865;28;20465;-73
2021/04/24 04:35:47;;;;;;;35.58;14.90;;;;;;;;;;8298178;28;20336;-73
2021/04/24 04:39:51;;;;;;;34.33;14.43;;;;;;;;;;8294564;28;20383;-73
2021/04/24 04:43:54;;;;;;;32.00;13.75;;;;;;;;;;8295224;28;20379;-73
2021/04/24 04:47:59;;;;;;;31.17;12.90;;;;;;;;;;8295671;28;20451;-73
2021/04/24 04:52:04;;;;;;;27.95;14.07;;;;;;;;;;8293806;28;20467;-73
2021/04/24 04:56:08;;;;;;;30.08;13.77;;;;;;;;;;8293151;28;20447;-74
2021/04/24 05:00:16;;;;;;;39.10;13.35;;;;;;;;;;8294763;28;20397;-73
2021/04/24 05:04:20;;;;;;;29.05;11.85;;;;;;;;;;8293207;28;20471;-73
2021/04/24 05:08:26;;;;;;;21.70;9.55;;;;;;;;;;8294405;28;20052;-74
2021/04/24 05:12:30;;;;;;;28.55;11.93;;;;;;;;;;8291647;28;20368;-73
2021/04/24 05:16:35;;;;;;;27.52;10.43;;;;;;;;;;8293312;28;20479;-73
2021/04/24 05:20:40;;;;;;;22.02;9.43;;;;;;;;;;8293060;28;20491;-73
2021/04/24 05:24:45;;;;;;;16.33;7.50;;;;;;;;;;8291433;28;20493;-73
2021/04/24 05:28:49;;;;;;;18.48;7.63;;;;;;;;;;8291313;28;20367;-73
2021/04/24 05:32:55;;;;;;;17.60;6.95;;;;;;;;;;8292858;28;20402;-73
2021/04/24 05:37:00;;;;;;;18.15;8.43;;;;;;;;;;8290164;28;20640;-73
2021/04/24 05:41:07;;;;;;;24.13;8.88;;;;;;;;;;8290255;28;20489;-73
2021/04/24 05:45:13;;;;;;;25.95;10.82;;;;;;;;;;8290044;28;20143;-74
2021/04/24 05:49:18;;;;;;;17.48;7.45;;;;;;;;;;8292342;28;20378;-73
2021/04/24 05:53:23;;;;;;;11.35;5.68;;;;;;;;;;8294251;28;20387;-73
2021/04/24 05:57:28;;;;;;;13.23;5.03;;;;;;;;;;8292998;28;20487;-73
2021/04/24 06:01:32;;;;;;;9.38;4.32;;;;;;;;;;8290567;28;20479;-74
2021/04/24 06:05:37;;;;;;;9.15;4.47;;;;;;;;;;8293652;28;20465;-73
2021/04/24 06:09:43;;;;;;;7.47;3.38;;;;;;;;;;8292831;28;20379;-73
2021/04/24 06:13:50;;;;;;;7.82;2.90;;;;;;;;;;8289024;28;20398;-73
2021/04/24 06:17:55;;;;;;;5.55;2.40;;;;;;;;;;8289492;28;20386;-73
2021/04/24 06:22:07;;;;;;;7.43;2.60;;;;;;;;;;8292617;28;20382;-73
2021/04/24 06:26:12;;;;;;;7.55;2.53;;;;;;;;;;8290525;28;20479;-73
2021/04/24 06:30:20;;;;;;;4.22;1.92;;;;;;;;;;8291513;28;20078;-73
2021/04/24 06:34:24;;;;;;;5.20;1.77;;;;;;;;;;8291036;28;20489;-74
2021/04/24 06:38:28;;;;;;;6.50;1.80;;;;;;;;;;8292042;28;20068;-73
2021/04/24 06:42:33;;;;;;;4.45;1.92;;;;;;;;;;8293366;28;20363;-74
2021/04/24 06:46:37;;;;;;;2.97;1.25;;;;;;;;;;8288588;28;20422;-73
2021/04/24 06:50:42;;;;;;;3.70;1.48;;;;;;;;;;8292687;28;20506;-73
2021/04/24 06:54:46;;;;;;;2.58;1.48;;;;;;;;;;8289978;28;20374;-74
2021/04/24 06:58:50;;;;;;;2.30;1.45;;;;;;;;;;8287628;28;20083;-74
2021/04/24 07:02:54;;;;;;;2.35;1.10;;;;;;;;;;8289268;28;20494;-74
2021/04/24 07:06:59;;;;;;;4.75;1.65;;;;;;;;;;8288259;28;20455;-74
2021/04/24 07:11:04;;;;;;;2.92;1.40;;;;;;;;;;8289533;28;20502;-74
2021/04/24 07:15:13;;;;;;;3.45;1.60;;;;;;;;;;8288925;28;20336;-73
2021/04/24 07:19:17;;;;;;;6.03;1.83;;;;;;;;;;8290493;28;20075;-73
2021/04/24 07:23:22;;;;;;;8.63;3.38;;;;;;;;;;8292163;28;20464;-73
2021/04/24 07:27:26;;;;;;;6.90;1.90;;;;;;;;;;8290958;28;20460;-72
2021/04/24 07:31:33;;;;;;;4.32;1.83;;;;;;;;;;8288818;28;20075;-75
2021/04/24 07:35:38;;;;;;;5.88;1.77;;;;;;;;;;8288524;28;20102;-74
2021/04/24 07:39:42;;;;;;;3.22;1.67;;;;;;;;;;8292950;28;20056;-73
2021/04/24 07:43:45;;;;;;;3.92;1.70;;;;;;;;;;8290292;28;20367;-74
2021/04/24 07:47:50;;;;;;;6.57;2.83;;;;;;;;;;8289853;28;20462;-73
2021/04/24 07:52:10;;;;;;;4.10;2.15;;;;;;;;;;8289446;28;20451;-74
2021/04/24 07:56:15;;;;;;;5.45;2.55;;;;;;;;;;8290846;28;20143;-73
2021/04/24 08:00:20;;;;;;;7.07;3.53;;;;;;;;;;8295720;28;20395;-74
2021/04/24 08:04:25;;;;;;;8.73;2.38;;;;;;;;;;8296306;28;20398;-73
2021/04/24 08:08:28;;;;;;;6.85;2.38;;;;;;;;;;8297200;28;20086;-73
2021/04/24 08:12:32;;;;;;;4.95;2.20;;;;;;;;;;8297206;28;20459;-73
2021/04/24 08:16:37;;;;;;;4.47;2.15;;;;;;;;;;8284823;28;20056;-73
2021/04/24 08:20:41;;;;;;;5.15;2.03;;;;;;;;;;8297394;28;20371;-73
2021/04/24 08:24:45;;;;;;;9.05;2.80;;;;;;;;;;8299516;28;20374;-73
2021/04/24 08:28:48;;;;;;;5.38;2.47;;;;;;;;;;8329967;28;20056;-73
2021/04/24 08:32:51;;;;;;;5.43;2.00;;;;;;;;;;8327533;28;20450;-73
2021/04/24 08:36:55;;;;;;;4.53;2.28;;;;;;;;;;8327437;28;20412;-73
2021/04/24 08:41:04;;;;;;;4.35;2.13;;;;;;;;;;8321482;28;20134;-73
2021/04/24 08:45:18;;;;;;;5.32;2.35;;;;;;;;;;8294246;28;20052;-73
2021/04/24 08:49:25;;;;;;;4.32;2.10;;;;;;;;;;8294868;28;20497;-72
2021/04/24 08:53:29;;;;;;;4.28;2.00;;;;;;;;;;8294712;28;20138;-72
2021/04/24 08:57:36;;;;;;;4.57;2.20;;;;;;;;;;8292408;28;20444;-73
2021/04/24 09:01:42;;;;;;;5.55;2.00;;;;;;;;;;8295166;28;20056;-73
2021/04/24 09:05:51;;;;;;;3.90;1.98;;;;;;;;;;8293227;28;20383;-72
2021/04/24 09:09:59;;;;;;;5.32;2.08;;;;;;;;;;8291302;28;20376;-72
2021/04/24 09:14:08;;;;;;;10.10;2.13;;;;;;;;;;8294353;28;20479;-72
2021/04/24 09:18:13;;;;;;;8.02;2.22;;;;;;;;;;8292526;28;20460;-72
2021/04/24 09:22:24;;;;;;;5.22;2.15;;;;;;;;;;8292385;28;20469;-72
2021/04/24 09:26:28;;;;;;;7.43;2.97;;;;;;;;;;8293210;28;20751;-72
2021/04/24 09:30:36;;;;;;;4.63;2.30;;;;;;;;;;8296375;28;20352;-72
2021/04/24 09:34:41;;;;;;;6.88;2.55;;;;;;;;;;8291446;28;20367;-72
2021/04/24 09:38:52;;;;;;;5.20;2.83;;;;;;;;;;8291852;28;20483;-72
2021/04/24 09:43:07;;;;;;;4.28;2.00;;;;;;;;;;8294277;28;20490;-72
2021/04/24 09:47:12;;;;;;;6.13;2.17;;;;;;;;;;8293233;28;20483;-71
2021/04/24 09:51:20;;;;;;;6.60;2.53;;;;;;;;;;8292300;28;20353;-71
2021/04/24 09:55:39;;;;;;;6.13;2.47;;;;;;;;;;8291133;28;20367;-72
2021/04/24 10:00:01;;;;;;;4.88;2.25;;;;;;;;;;8293148;28;20459;-72
2021/04/24 10:04:15;;;;;;;9.73;2.38;;;;;;;;;;8292610;28;20436;-72
2021/04/24 10:08:20;;;;;;;4.47;2.63;;;;;;;;;;8289807;28;20379;-72
2021/04/24 10:12:23;;;;;;;7.72;2.55;;;;;;;;;;8292483;28;20391;-72
2021/04/24 10:16:43;;;;;;;4.97;2.38;;;;;;;;;;8290494;28;20451;-72
2021/04/24 10:20:48;;;;;;;6.13;2.03;;;;;;;;;;8290728;28;20146;-72
2021/04/24 10:24:54;;;;;;;5.28;2.17;;;;;;;;;;8291729;28;20076;-73
2021/04/24 10:29:00;;;;;;;10.88;3.78;;;;;;;;;;8275535;28;20467;-72
2021/04/24 10:33:06;;;;;;;6.20;3.20;;;;;;;;;;8293510;28;20398;-71
2021/04/24 10:37:12;;;;;;;5.65;2.67;;;;;;;;;;8291541;28;20137;-72
2021/04/24 10:41:25;;;;;;;10.30;2.75;;;;;;;;;;8291884;28;20394;-71
2021/04/24 10:45:35;;;;;;;11.10;3.70;;;;;;;;;;8289605;28;20336;-71
2021/04/24 10:49:59;;;;;;;5.97;2.83;;;;;;;;;;8291787;28;20477;-70
2021/04/24 10:54:12;;;;;;;9.77;3.38;;;;;;;;;;8289830;28;20452;-70
2021/04/24 10:58:22;;;;;;;4.07;2.10;;;;;;;;;;8290946;28;20482;-71
2021/04/24 11:02:55;;;;;;;8.40;3.45;;;;;;;;;;8288050;28;20368;-70
2021/04/24 11:07:20;;;;;;;6.47;2.70;;;;;;;;;;8289199;28;20388;-71
2021/04/24 11:11:23;;;;;;;6.00;2.70;;;;;;;;;;8288423;28;20068;-71
2021/04/24 11:15:28;;;;;;;4.13;2.50;;;;;;;;;;8289290;28;20075;-71
2021/04/24 11:19:47;;;;;;;6.82;2.33;;;;;;;;;;8289097;28;20382;-71
2021/04/24 11:23:59;;;;;;;5.88;2.63;;;;;;;;;;8290263;28;20440;-71
2021/04/24 11:28:13;;;;;;;12.05;3.97;;;;;;;;;;8290772;28;20060;-71
2021/04/24 11:32:20;;;;;;;10.90;2.97;;;;;;;;;;8291765;28;20382;-70
2021/04/24 11:36:26;;;;;;;4.50;2.40;;;;;;;;;;8293206;28;20379;-70
2021/04/24 11:40:31;;;;;;;6.15;1.95;;;;;;;;;;8289421;28;20060;-70
2021/04/24 11:44:35;;;;;;;4.82;2.03;;;;;;;;;;8289937;28;20084;-71
2021/04/24 11:48:47;;;;;;;7.10;2.13;;;;;;;;;;8289455;28;20367;-73
2021/04/24 11:53:00;;;;;;;4.88;1.98;;;;;;;;;;8292262;28;20441;-71
2021/04/24 11:57:07;;;;;;;13.85;6.05;;;;;;;;;;8289356;28;20360;-71
2021/04/24 12:01:25;;;;;;;8.50;4.72;;;;;;;;;;8289732;28;20394;-71
2021/04/24 12:05:30;;;;;;;5.70;3.40;;;;;;;;;;8287815;28;20356;-70
2021/04/24 12:09:55;;;;;;;10.80;3.03;;;;;;;;;;8289734;28;20383;-70
2021/04/24 12:14:00;;;;;;;8.52;3.00;;;;;;;;;;8290614;28;20398;-70
2021/04/24 12:18:07;;;;;;;6.20;2.42;;;;;;;;;;8288532;28;20501;-70
2021/04/24 12:22:20;;;;;;;27.42;7.18;;;;;;;;;;8272588;28;20456;-71
2021/04/24 12:26:28;;;;;;;47.97;12.18;;;;;;;;;;8290610;28;20375;-71
2021/04/24 12:30:35;;;;;;;20.38;6.60;;;;;;;;;;8291037;28;20398;-69
2021/04/24 12:34:42;;;;;;;18.63;6.85;;;;;;;;;;8289821;28;20501;-71
2021/04/24 12:38:47;;;;;;;5.72;2.80;;;;;;;;;;8290254;28;20452;-71
2021/04/24 12:42:51;;;;;;;7.03;2.65;;;;;;;;;;8291613;28;20486;-70
2021/04/24 12:46:56;;;;;;;13.40;3.75;;;;;;;;;;8278351;28;20467;-70
2021/04/24 12:51:02;;;;;;;5.57;2.47;;;;;;;;;;8294583;28;20463;-70
2021/04/24 12:55:07;;;;;;;5.47;2.10;;;;;;;;;;8294155;28;20398;-71
2021/04/24 12:59:12;;;;;;;5.63;2.40;;;;;;;;;;8296431;28;20478;-71
2021/04/24 13:03:37;;;;;;;6.32;2.22;;;;;;;;;;8295057;28;20052;-69
2021/04/24 13:07:41;;;;;;;8.25;2.20;;;;;;;;;;8295226;28;20370;-71
2021/04/24 13:11:47;;;;;;;13.15;4.13;;;;;;;;;;8294127;28;20439;-71
2021/04/24 13:15:51;;;;;;;7.30;2.20;;;;;;;;;;8294623;28;20048;-70
2021/04/24 13:20:00;;;;;;;9.93;2.50;;;;;;;;;;8293779;28;20566;-69
2021/04/24 13:24:14;;;;;;;12.75;4.18;;;;;;;;;;8292178;28;20479;-70
2021/04/24 13:28:31;;;;;;;11.38;2.80;;;;;;;;;;8293526;28;20486;-69
2021/04/24 13:32:36;;;;;;;6.78;2.85;;;;;;;;;;8291871;28;20056;-72
2021/04/24 13:36:40;;;;;;;7.75;2.42;;;;;;;;;;8293961;28;20471;-70
2021/04/24 13:40:46;;;;;;;12.77;3.00;;;;;;;;;;8294165;28;20458;-69
2021/04/24 13:45:05;;;;;;;11.63;3.58;;;;;;;;;;8291935;28;20361;-71
2021/04/24 13:49:18;;;;;;;9.82;3.95;;;;;;;;;;8293839;28;20401;-70
2021/04/24 13:53:22;;;;;;;6.28;2.30;;;;;;;;;;8294378;28;20374;-69
2021/04/24 13:57:27;;;;;;;9.90;2.25;;;;;;;;;;8292426;28;20397;-70
2021/04/24 14:01:30;;;;;;;6.15;2.30;;;;;;;;;;8292553;28;20406;-71
2021/04/24 14:05:33;;;;;;;11.48;2.35;;;;;;;;;;8293348;28;20438;-69
2021/04/24 14:09:37;;;;;;;8.95;2.67;;;;;;;;;;8290322;28;20368;-70
2021/04/24 14:13:42;;;;;;;5.30;2.70;;;;;;;;;;8290240;28;20447;-71
2021/04/24 14:17:46;;;;;;;5.82;3.42;;;;;;;;;;8293278;28;20371;-70
2021/04/24 14:21:53;;;;;;;4.72;2.53;;;;;;;;;;8293933;28;20053;-70
2021/04/24 14:26:07;;;;;;;9.30;3.80;;;;;;;;;;8290413;28;20393;-69
2021/04/24 14:30:15;;;;;;;6.72;3.35;;;;;;;;;;8291619;28;20493;-70
2021/04/24 14:34:19;;;;;;;11.90;3.70;;;;;;;;;;8291911;28;20071;-70
2021/04/24 14:38:24;;;;;;;6.10;2.00;;;;;;;;;;8291732;28;20418;-69
2021/04/24 14:42:28;;;;;;;5.63;3.08;;;;;;;;;;8291131;28;20455;-70
2021/04/24 14:46:31;;;;;;;13.60;5.93;;;;;;;;;;8291048;28;20056;-69
2021/04/24 14:50:35;;;;;;;6.90;3.22;;;;;;;;;;8290310;28;20333;-70
2021/04/24 14:54:40;;;;;;;9.15;2.63;;;;;;;;;;8291517;28;20359;-69
2021/04/24 14:58:52;;;;;;;9.52;3.90;;;;;;;;;;8288623;28;20395;-69
2021/04/24 15:02:57;;;;;;;14.68;5.95;;;;;;;;;;8290811;28;20079;-69
2021/04/24 15:07:03;;;;;;;9.25;5.43;;;;;;;;;;8292553;28;20459;-71
2021/04/24 15:11:08;;;;;;;7.78;4.25;;;;;;;;;;8288892;28;20060;-69
2021/04/24 15:15:13;;;;;;;17.27;8.75;;;;;;;;;;8289995;28;20459;-69
2021/04/24 15:19:17;;;;;;;6.10;3.47;;;;;;;;;;8290500;28;20379;-69
2021/04/24 15:23:24;;;;;;;9.43;3.90;;;;;;;;;;8291225;28;20443;-70
2021/04/24 15:27:29;;;;;;;12.38;5.60;;;;;;;;;;8288689;28;20060;-69
2021/04/24 15:31:33;;;;;;;9.73;4.25;;;;;;;;;;8289399;28;20455;-69
2021/04/24 15:35:38;;;;;;;20.55;8.73;;;;;;;;;;8289407;28;20374;-70
2021/04/24 15:39:54;;;;;;;12.52;5.47;;;;;;;;;;8290620;28;20052;-69
2021/04/24 15:43:58;;;;;;;9.45;4.57;;;;;;;;;;8273744;28;20387;-69
2021/04/24 15:48:03;;;;;;;12.73;6.82;;;;;;;;;;8290743;28;20060;-69
2021/04/24 15:52:10;;;;;;;14.25;4.05;;;;;;;;;;8292075;28;20498;-69
2021/04/24 15:56:14;;;;;;;14.80;7.40;;;;;;;;;;8290162;28;20488;-70
2021/04/24 16:00:29;;;;;;;10.88;5.40;;;;;;;;;;8289573;28;20471;-69
2021/04/24 16:04:34;;;;;;;10.35;5.22;;;;;;;;;;8289645;28;20452;-69
2021/04/24 16:08:37;;;;;;;19.05;8.15;;;;;;;;;;8289814;28;20448;-69
2021/04/24 16:12:42;;;;;;;22.25;7.72;;;;;;;;;;8289353;28;20363;-70
2021/04/24 16:16:50;;;;;;;17.30;6.93;;;;;;;;;;8289895;28;20463;-68
2021/04/24 16:20:55;;;;;;;20.48;7.03;;;;;;;;;;8296703;28;20402;-69
2021/04/24 16:25:00;;;;;;;23.63;7.38;;;;;;;;;;8297114;28;20497;-68
2021/04/24 16:29:06;;;;;;;17.05;8.85;;;;;;;;;;8294133;28;20403;-69
2021/04/24 16:33:13;;;;;;;19.27;8.30;;;;;;;;;;8295019;28;20373;-70
2021/04/24 16:37:18;;;;;;;21.75;9.77;;;;;;;;;;8294380;28;20366;-70
2021/04/24 16:41:22;;;;;;;11.98;7.05;;;;;;;;;;8275704;28;20454;-69
2021/04/24 16:45:27;;;;;;;33.38;18.15;;;;;;;;;;8295199;28;20472;-69
2021/04/24 16:49:31;;;;;;;20.65;10.80;;;;;;;;;;8294562;28;20378;-69
2021/04/24 16:53:40;;;;;;;20.10;9.88;;;;;;;;;;8295877;28;20052;-69
2021/04/24 16:57:44;;;;;;;;;;;;;;;;;;8296961;28;20067;-69
2021/04/24 17:01:49;;;;;;;21.67;10.82;;;;;;;;;;8292533;28;19924;-70
2021/04/24 17:05:54;;;;;;;39.03;13.18;;;;;;;;;;8294078;28;20070;-69
2021/04/24 17:09:58;;;;;;;22.65;10.00;;;;;;;;;;8289080;28;20332;-69
2021/04/24 17:14:05;;;;;;;23.05;11.15;;;;;;;;;;8289651;28;20327;-69
2021/04/24 17:18:08;;;;;;;78.60;33.30;;;;;;;;;;8289696;28;20399;-69
2021/04/24 17:22:15;;;;;;;66.53;27.15;;;;;;;;;;8288936;28;20463;-70
2021/04/24 17:26:21;;;;;;;22.60;10.75;;;;;;;;;;8291523;28;20447;-70
2021/04/24 17:30:26;;;;;;;12.82;4.90;;;;;;;;;;8284697;28;20471;-69
2021/04/24 17:34:30;;;;;;;12.52;5.00;;;;;;;;;;8286540;28;20395;-69
2021/04/24 17:38:34;;;;;;;9.77;4.22;;;;;;;;;;8289454;28;20420;-69
2021/04/24 17:43:06;;;;;;;20.70;8.43;;;;;;;;;;8289781;28;20454;-69
2021/04/24 17:47:11;;;;;;;26.15;12.40;;;;;;;;;;8287652;28;20392;-70
2021/04/24 17:51:15;;;;;;;26.77;10.90;;;;;;;;;;8289779;28;20477;-70
2021/04/24 17:55:20;;;;;;;51.28;20.25;;;;;;;;;;8288015;28;20070;-69
2021/04/24 17:59:25;;;;;;;82.32;33.60;;;;;;;;;;8288542;28;20459;-69
2021/04/24 18:03:33;;;;;;;19.13;9.75;;;;;;;;;;8287528;28;20064;-70
2021/04/24 18:07:42;;;;;;;10.52;4.78;;;;;;;;;;8287664;28;20483;-69
2021/04/24 18:11:47;;;;;;;11.63;5.90;;;;;;;;;;8286912;28;20378;-69
2021/04/24 18:15:51;;;;;;;21.17;7.53;;;;;;;;;;8270345;28;20048;-70
2021/04/24 18:19:56;;;;;;;27.50;9.13;;;;;;;;;;8287216;28;20496;-69
2021/04/24 18:24:01;;;;;;;69.97;24.17;;;;;;;;;;8288154;28;20382;-70
2021/04/24 18:28:06;;;;;;;145.25;46.83;;;;;;;;;;8287786;28;20348;-70
2021/04/24 18:32:10;;;;;;;263.92;90.95;;;;;;;;;;8287786;28;20378;-69
2021/04/24 18:36:15;;;;;;;106.80;39.22;;;;;;;;;;8285931;28;20368;-70
2021/04/24 18:40:25;;;;;;;147.27;57.47;;;;;;;;;;8284930;28;20491;-71
2021/04/24 18:44:30;;;;;;;117.03;44.05;;;;;;;;;;8285273;28;20355;-70
2021/04/24 18:48:34;;;;;;;62.92;28.30;;;;;;;;;;8286834;28;20451;-70
2021/04/24 18:52:39;;;;;;;61.70;23.38;;;;;;;;;;8286238;28;20364;-71
2021/04/24 18:56:43;;;;;;;42.83;16.00;;;;;;;;;;8285308;28;20380;-71
2021/04/24 19:00:47;;;;;;;36.70;15.60;;;;;;;;;;8285847;28;20397;-70
2021/04/24 19:04:52;;;;;;;30.95;13.25;;;;;;;;;;8287705;28;20331;-70
2021/04/24 19:08:59;;;;;;;32.90;14.57;;;;;;;;;;8287546;28;20056;-70
2021/04/24 19:13:16;;;;;;;193.10;89.47;;;;;;;;;;8286546;28;20406;-71
2021/04/24 19:17:22;;;;;;;148.85;66.55;;;;;;;;;;8286816;28;20371;-70
2021/04/24 19:21:26;;;;;;;135.15;62.92;;;;;;;;;;8269733;28;20426;-70
2021/04/24 19:25:32;;;;;;;61.30;26.83;;;;;;;;;;8285659;28;20451;-69
2021/04/24 19:29:36;;;;;;;62.20;25.60;;;;;;;;;;8284529;28;20410;-69
2021/04/24 19:33:40;;;;;;;70.80;26.55;;;;;;;;;;8286215;28;20053;-69
2021/04/24 19:37:46;;;;;;;71.97;27.20;;;;;;;;;;8283291;28;20450;-70
2021/04/24 19:41:50;;;;;;;71.82;26.02;;;;;;;;;;8285431;28;20422;-69
2021/04/24 19:45:55;;;;;;;47.58;20.58;;;;;;;;;;8285118;28;20481;-70
2021/04/24 19:50:08;;;;;;;44.50;19.05;;;;;;;;;;8283704;28;20060;-70
2021/04/24 19:54:17;;;;;;;47.03;18.92;;;;;;;;;;8290006;28;20398;-70
2021/04/24 19:58:22;;;;;;;76.60;27.27;;;;;;;;;;8293130;28;20451;-70
2021/04/24 20:02:28;;;;;;;103.53;37.60;;;;;;;;;;8293002;28;20378;-69
2021/04/24 20:06:34;;;;;;;116.43;35.70;;;;;;;;;;8288971;28;20130;-69
2021/04/24 20:10:38;;;;;;;159.00;43.40;;;;;;;;;;8290902;28;20462;-70
2021/04/24 20:14:43;;;;;;;185.25;51.10;;;;;;;;;;8289998;28;20305;-69
2021/04/24 20:18:48;;;;;;;201.77;58.90;;;;;;;;;;8291413;28;20425;-70
2021/04/24 20:22:53;;;;;;;322.90;82.05;;;;;;;;;;8289395;28;20502;-72
2021/04/24 20:26:58;;;;;;;288.98;71.50;;;;;;;;;;8290806;28;20149;-70
2021/04/24 20:31:03;;;;;;;275.35;73.40;;;;;;;;;;8289957;28;20079;-70
2021/04/24 20:35:09;;;;;;;177.02;56.20;;;;;;;;;;8291100;28;20517;-69
2021/04/24 20:39:13;;;;;;;163.02;48.95;;;;;;;;;;8289296;28;20417;-70
2021/04/24 20:43:20;;;;;;;116.63;37.35;;;;;;;;;;8291025;28;20056;-71
2021/04/24 20:47:25;;;;;;;99.85;35.42;;;;;;;;;;8292628;28;20394;-70
2021/04/24 20:51:45;;;;;;;99.72;34.78;;;;;;;;;;8292751;28;20493;-70
2021/04/24 20:55:51;;;;;;;99.97;36.55;;;;;;;;;;8295067;28;20337;-70
2021/04/24 20:59:55;;;;;;;83.88;33.50;;;;;;;;;;8290548;28;20375;-70
2021/04/24 21:03:59;;;;;;;40.90;15.38;;;;;;;;;;8289073;28;20418;-70
2021/04/24 21:08:04;;;;;;;31.98;10.43;;;;;;;;;;8271831;28;20074;-70
2021/04/24 21:12:09;;;;;;;23.05;7.93;;;;;;;;;;8288984;28;20361;-70
2021/04/24 21:16:13;;;;;;;30.85;10.13;;;;;;;;;;8287965;28;20475;-70
2021/04/24 21:20:20;;;;;;;23.35;7.78;;;;;;;;;;8287542;28;20482;-69
2021/04/24 21:24:24;;;;;;;19.83;8.60;;;;;;;;;;8290055;28;20483;-70
2021/04/24 21:28:28;;;;;;;27.38;10.93;;;;;;;;;;8290689;28;20509;-70
2021/04/24 21:32:32;;;;;;;35.08;12.48;;;;;;;;;;8289045;28;20406;-69
2021/04/24 21:36:44;;;;;;;30.58;10.68;;;;;;;;;;8290073;28;20459;-70
2021/04/24 21:40:48;;;;;;;34.90;10.63;;;;;;;;;;8288568;28;20430;-70
2021/04/24 21:44:53;;;;;;;28.08;9.00;;;;;;;;;;8289578;28;20475;-70
2021/04/24 21:48:58;;;;;;;16.67;5.90;;;;;;;;;;8289162;28;20474;-70
2021/04/24 21:53:02;;;;;;;19.33;6.13;;;;;;;;;;8289997;28;20431;-70
2021/04/24 21:57:08;;;;;;;20.60;6.63;;;;;;;;;;8288756;28;20416;-71
2021/04/24 22:01:12;;;;;;;27.58;10.93;;;;;;;;;;8288909;28;20475;-70
2021/04/24 22:05:17;;;;;;;27.23;11.38;;;;;;;;;;8290596;28;20526;-70
2021/04/24 22:09:21;;;;;;;25.88;11.00;;;;;;;;;;8287817;28;20406;-70
2021/04/24 22:13:28;;;;;;;28.10;10.40;;;;;;;;;;8290761;28;20048;-70
2021/04/24 22:17:33;;;;;;;22.00;9.43;;;;;;;;;;8289351;28;20048;-71
2021/04/24 22:21:37;;;;;;;25.77;8.73;;;;;;;;;;8288729;28;20474;-70
2021/04/24 22:25:45;;;;;;;30.52;10.30;;;;;;;;;;8286973;28;20408;-71
2021/04/24 22:29:49;;;;;;;27.50;9.75;;;;;;;;;;8288208;28;20367;-71
2021/04/24 22:33:54;;;;;;;33.13;11.80;;;;;;;;;;8287430;28;20053;-71
2021/04/24 22:37:57;;;;;;;55.38;14.48;;;;;;;;;;8288410;28;20471;-70
2021/04/24 22:42:02;;;;;;;70.47;17.00;;;;;;;;;;8288847;28;20362;-71
2021/04/24 22:46:07;;;;;;;56.00;19.80;;;;;;;;;;8287394;28;20392;-70
2021/04/24 22:50:14;;;;;;;87.20;29.48;;;;;;;;;;8289664;28;20386;-70
2021/04/24 22:54:17;;;;;;;90.45;28.98;;;;;;;;;;8285927;28;20056;-71
2021/04/24 22:58:21;;;;;;;76.75;25.77;;;;;;;;;;8289418;28;20438;-70
2021/04/24 23:02:26;;;;;;;73.80;25.17;;;;;;;;;;8286484;28;20052;-71
2021/04/24 23:06:30;;;;;;;71.03;24.20;;;;;;;;;;8254480;28;20360;-70
2021/04/24 23:10:34;;;;;;;48.22;18.75;;;;;;;;;;8288349;28;20370;-70
2021/04/24 23:14:39;;;;;;;64.78;21.75;;;;;;;;;;8287206;28;20482;-71
2021/04/24 23:18:43;;;;;;;59.03;23.08;;;;;;;;;;8284286;28;20324;-70
2021/04/24 23:22:48;;;;;;;82.80;25.58;;;;;;;;;;8287517;28;20479;-71
2021/04/24 23:26:52;;;;;;;74.05;23.23;;;;;;;;;;8287709;28;20363;-70
2021/04/24 23:30:57;;;;;;;75.13;25.13;;;;;;;;;;8285698;28;20064;-70
2021/04/24 23:35:02;;;;;;;80.97;27.45;;;;;;;;;;8287777;28;20463;-71
2021/04/24 23:39:06;;;;;;;60.75;19.70;;;;;;;;;;8284785;28;20497;-70
2021/04/24 23:43:11;;;;;;;58.28;19.23;;;;;;;;;;8286523;28;20336;-70
2021/04/24 23:47:15;;;;;;;71.57;21.30;;;;;;;;;;8286634;28;20399;-70
2021/04/24 23:51:19;;;;;;;61.60;19.77;;;;;;;;;;8284452;28;20052;-70
2021/04/24 23:55:24;;;;;;;58.67;17.75;;;;;;;;;;8285718;28;20500;-71
2021/04/24 23:59:28;;;;;;;56.20;18.67;;;;;;;;;;8268480;28;20427;-70
